Time;durP1;ratioP1;P1;durP2;ratioP2;P2;SDS_P1;SDS_P2;PMS_P1;PMS_P2;Temp;Humidity;BMP_temperature;BMP_pressure;BME280_temperature;BME280_humidity;BME280_pressure;Samples;Min_cycle;Max_cycle;Signal;HPM_P1;HPM_P2
2023/10/03 00:02:09;;;;;;;20.73;11.07;;;17.20;99.90;;;;;;4979986;28;20034;-76
2023/10/03 00:04:35;;;;;;;19.33;11.40;;;17.10;99.90;;;;;;4993921;28;20038;-76
2023/10/03 00:07:02;;;;;;;17.52;10.43;;;17.20;99.90;;;;;;5011076;28;20030;-76
2023/10/03 00:09:28;;;;;;;19.20;11.18;;;17.10;99.90;;;;;;5012616;28;20032;-76
2023/10/03 00:11:55;;;;;;;18.38;10.35;;;17.10;99.90;;;;;;4966267;28;20057;-76
2023/10/03 00:14:21;;;;;;;20.48;10.65;;;17.10;99.90;;;;;;4993041;28;20037;-76
2023/10/03 00:16:47;;;;;;;20.88;11.48;;;17.10;99.90;;;;;;4996064;28;20041;-76
2023/10/03 00:19:14;;;;;;;20.08;10.38;;;17.10;99.90;;;;;;4997503;28;20034;-76
2023/10/03 00:21:41;;;;;;;19.05;10.55;;;17.20;99.90;;;;;;4980825;28;20476;-76
2023/10/03 00:24:07;;;;;;;22.10;11.57;;;17.20;99.90;;;;;;4996739;28;20045;-77
2023/10/03 00:26:34;;;;;;;18.27;10.13;;;17.20;99.90;;;;;;4979710;28;20482;-77
2023/10/03 00:29:00;;;;;;;23.75;12.63;;;17.30;99.90;;;;;;4980134;28;20400;-77
2023/10/03 00:31:29;;;;;;;21.10;11.80;;;17.30;99.90;;;;;;4994521;28;20073;-77
2023/10/03 00:33:57;;;;;;;22.00;11.73;;;17.40;99.90;;;;;;4995196;28;20126;-77
2023/10/03 00:36:25;;;;;;;22.63;11.05;;;17.40;99.90;;;;;;5010829;28;20526;-76
2023/10/03 00:38:52;;;;;;;19.77;10.52;;;17.40;99.90;;;;;;5011537;28;20032;-77
2023/10/03 00:41:19;;;;;;;19.67;11.13;;;17.50;99.90;;;;;;4995462;28;20041;-77
2023/10/03 00:43:53;;;;;;;22.77;12.23;;;17.50;99.90;;;;;;4980893;28;20415;-77
2023/10/03 00:46:19;;;;;;;21.77;10.85;;;17.50;99.90;;;;;;5011867;28;20396;-77
2023/10/03 00:48:49;;;;;;;19.50;10.13;;;17.50;99.90;;;;;;4993506;28;20053;-76
2023/10/03 00:51:20;;;;;;;21.20;11.48;;;17.50;99.90;;;;;;4996626;28;20404;-77
2023/10/03 00:53:47;;;;;;;21.70;10.85;;;17.40;99.90;;;;;;4981563;28;20034;-76
2023/10/03 00:56:15;;;;;;;21.02;10.38;;;17.40;99.90;;;;;;4976834;28;20033;-76
2023/10/03 00:58:41;;;;;;;22.23;11.80;;;17.40;99.90;;;;;;4979378;28;20430;-76
2023/10/03 01:01:09;;;;;;;20.73;10.73;;;17.30;99.90;;;;;;4997739;28;20412;-76
2023/10/03 01:03:37;;;;;;;20.05;10.43;;;17.30;99.90;;;;;;4995062;28;20037;-76
2023/10/03 01:06:09;;;;;;;19.55;10.95;;;17.20;99.90;;;;;;4995205;28;20469;-76
2023/10/03 01:08:38;;;;;;;20.80;10.75;;;17.20;99.90;;;;;;4961551;28;20038;-77
2023/10/03 01:11:07;;;;;;;18.85;10.07;;;17.10;99.90;;;;;;4993443;28;20401;-76
2023/10/03 01:13:34;;;;;;;17.70;9.13;;;17.10;99.90;;;;;;4996978;28;20026;-76
2023/10/03 01:16:05;;;;;;;18.67;9.30;;;17.10;99.90;;;;;;4995261;28;20033;-76
2023/10/03 01:18:33;;;;;;;19.30;10.20;;;17.10;99.90;;;;;;4994943;28;20532;-76
2023/10/03 01:21:05;;;;;;;17.27;9.60;;;17.00;99.90;;;;;;4987845;28;20041;-76
2023/10/03 01:23:36;;;;;;;20.35;10.52;;;17.00;99.90;;;;;;4978021;28;20048;-77
2023/10/03 01:26:04;;;;;;;16.98;9.55;;;16.90;99.90;;;;;;4992933;28;20030;-77
2023/10/03 01:28:31;;;;;;;19.25;9.52;;;16.90;99.90;;;;;;4994595;28;20389;-77
2023/10/03 01:30:57;;;;;;;17.88;9.52;;;16.90;99.90;;;;;;5010667;28;20038;-77
2023/10/03 01:33:26;;;;;;;19.75;10.27;;;16.80;99.90;;;;;;4996343;28;20053;-76
2023/10/03 01:35:56;;;;;;;19.80;10.38;;;16.80;99.90;;;;;;4995258;28;20026;-76
2023/10/03 01:38:22;;;;;;;16.77;9.65;;;16.80;99.90;;;;;;4993219;28;20034;-76
2023/10/03 01:40:52;;;;;;;18.45;9.38;;;16.80;99.90;;;;;;4979872;28;20034;-76
2023/10/03 01:43:19;;;;;;;21.50;11.57;;;16.80;99.90;;;;;;4992297;28;20046;-76
2023/10/03 01:45:45;;;;;;;20.05;10.38;;;16.70;99.90;;;;;;4992000;28;20030;-76
2023/10/03 01:48:12;;;;;;;21.13;11.05;;;16.70;99.90;;;;;;4992366;28;20044;-77
2023/10/03 01:50:39;;;;;;;19.77;9.98;;;16.70;99.90;;;;;;4990785;28;20508;-76
2023/10/03 01:53:08;;;;;;;20.92;10.90;;;16.70;99.90;;;;;;4981608;28;20037;-77
2023/10/03 01:55:35;;;;;;;23.83;12.18;;;16.80;99.90;;;;;;4994861;28;20440;-77
2023/10/03 01:58:03;;;;;;;19.95;10.93;;;16.80;99.90;;;;;;4994709;28;20434;-77
2023/10/03 02:00:31;;;;;;;22.83;11.40;;;16.70;99.90;;;;;;4966238;28;20042;-77
2023/10/03 02:03:04;;;;;;;20.55;11.13;;;16.70;99.90;;;;;;4994922;28;20436;-77
2023/10/03 02:05:33;;;;;;;21.13;11.30;;;16.70;99.90;;;;;;4978939;28;20331;-77
2023/10/03 02:08:15;;;;;;;22.05;10.73;;;16.70;99.90;;;;;;4995560;28;20045;-77
2023/10/03 02:10:44;;;;;;;20.67;10.93;;;16.70;99.90;;;;;;4993913;28;20401;-77
2023/10/03 02:13:17;;;;;;;23.95;11.63;;;16.70;99.90;;;;;;4997653;28;20432;-77
2023/10/03 02:15:45;;;;;;;19.63;10.50;;;16.70;99.90;;;;;;4997726;28;20045;-77
2023/10/03 02:18:13;;;;;;;23.17;11.45;;;16.70;99.90;;;;;;4983328;28;20405;-77
2023/10/03 02:20:50;;;;;;;22.55;11.63;;;16.70;99.90;;;;;;5000039;28;20041;-77
2023/10/03 02:23:19;;;;;;;18.95;9.48;;;16.70;99.90;;;;;;4953352;28;20045;-77
2023/10/03 02:25:54;;;;;;;22.08;10.57;;;16.80;99.90;;;;;;4996788;28;20461;-76
2023/10/03 02:28:20;;;;;;;21.70;10.80;;;16.80;99.90;;;;;;4983091;28;20045;-77
2023/10/03 02:30:49;;;;;;;22.40;11.32;;;16.80;99.90;;;;;;4995833;28;20034;-77
2023/10/03 02:33:17;;;;;;;20.25;10.93;;;16.80;99.90;;;;;;5014235;28;20061;-77
2023/10/03 02:35:48;;;;;;;23.35;11.43;;;16.80;99.90;;;;;;4981785;28;20043;-77
2023/10/03 02:38:24;;;;;;;21.20;11.43;;;16.80;99.90;;;;;;4981634;28;20045;-77
2023/10/03 02:40:57;;;;;;;22.00;11.73;;;16.90;99.90;;;;;;4970497;28;20041;-77
2023/10/03 02:43:34;;;;;;;23.30;12.00;;;16.90;99.90;;;;;;4996991;28;20049;-77
2023/10/03 02:46:04;;;;;;;25.27;12.73;;;17.00;99.90;;;;;;4966881;28;20049;-77
2023/10/03 02:48:31;;;;;;;22.25;12.38;;;17.00;99.90;;;;;;4983194;28;20042;-77
2023/10/03 02:51:01;;;;;;;22.50;11.68;;;17.00;99.90;;;;;;4998952;28;20038;-77
2023/10/03 02:53:27;;;;;;;23.98;12.50;;;17.00;99.90;;;;;;4982277;28;20033;-77
2023/10/03 02:55:54;;;;;;;24.35;12.52;;;17.00;99.90;;;;;;4996323;28;20503;-77
2023/10/03 02:58:21;;;;;;;22.80;12.43;;;17.00;99.90;;;;;;4996779;28;20030;-77
2023/10/03 03:00:53;;;;;;;23.75;12.82;;;17.00;99.90;;;;;;5013527;28;20033;-77
2023/10/03 03:03:22;;;;;;;;;;;17.00;99.90;;;;;;4996599;28;20042;-77
2023/10/03 03:05:49;;;;;;;24.75;13.18;;;17.10;99.90;;;;;;4981928;28;19924;-76
2023/10/03 03:10:49;;;;;;;25.38;13.35;;;17.10;99.90;;;;;;4999313;28;20097;-76
2023/10/03 03:13:16;;;;;;;27.05;13.25;;;17.20;99.90;;;;;;4996322;28;20038;-77
2023/10/03 03:15:51;;;;;;;30.15;14.30;;;17.30;99.90;;;;;;5010573;28;20392;-77
2023/10/03 03:18:20;;;;;;;28.52;14.20;;;17.40;99.90;;;;;;5009928;28;20044;-77
2023/10/03 03:20:53;;;;;;;27.38;14.02;;;17.50;99.90;;;;;;4980858;28;20042;-77
2023/10/03 03:23:20;;;;;;;30.02;14.75;;;17.50;99.90;;;;;;4995069;28;20038;-77
2023/10/03 03:25:49;;;;;;;29.42;15.55;;;17.60;99.90;;;;;;4994763;28;20045;-76
2023/10/03 03:28:16;;;;;;;29.75;14.82;;;17.70;99.90;;;;;;4994068;28;20030;-77
2023/10/03 03:30:46;;;;;;;27.23;14.68;;;17.70;99.90;;;;;;4996502;28;20026;-76
2023/10/03 03:33:14;;;;;;;26.10;13.70;;;17.80;99.90;;;;;;4996405;28;20041;-77
2023/10/03 03:35:41;;;;;;;26.83;14.18;;;17.80;99.90;;;;;;4998164;28;20053;-76
2023/10/03 03:38:15;;;;;;;24.52;12.82;;;17.90;99.90;;;;;;4998220;28;20049;-77
2023/10/03 03:40:56;;;;;;;24.70;13.60;;;17.90;99.90;;;;;;4980161;28;20018;-77
2023/10/03 03:43:22;;;;;;;30.13;15.40;;;17.90;99.90;;;;;;4997104;28;20042;-77
2023/10/03 03:45:51;;;;;;;27.65;13.60;;;17.90;99.90;;;;;;4996767;28;20381;-76
2023/10/03 03:48:21;;;;;;;26.67;13.40;;;17.90;99.90;;;;;;4979347;28;20044;-77
2023/10/03 03:50:50;;;;;;;21.42;11.63;;;17.90;99.90;;;;;;4997496;28;20045;-77
2023/10/03 03:53:18;;;;;;;24.05;12.40;;;17.90;99.90;;;;;;4979688;28;20044;-77
2023/10/03 03:55:46;;;;;;;23.13;12.27;;;17.90;99.90;;;;;;4977882;28;20500;-77
2023/10/03 03:58:14;;;;;;;22.85;11.68;;;17.90;99.90;;;;;;4996741;28;20035;-77
2023/10/03 04:00:47;;;;;;;22.25;10.43;;;17.90;99.90;;;;;;4979168;28;20048;-77
2023/10/03 04:03:14;;;;;;;22.55;12.32;;;17.90;99.90;;;;;;5012923;28;20044;-77
2023/10/03 04:05:42;;;;;;;26.15;12.95;;;17.90;99.90;;;;;;4995715;28;20034;-77
2023/10/03 04:08:08;;;;;;;23.60;12.70;;;17.90;99.90;;;;;;5010764;28;20034;-76
2023/10/03 04:10:36;;;;;;;23.42;13.00;;;18.00;99.90;;;;;;5006725;28;20034;-77
2023/10/03 04:13:10;;;;;;;24.00;12.45;;;18.00;99.90;;;;;;4996308;28;20421;-76
2023/10/03 04:15:39;;;;;;;23.85;12.55;;;18.00;99.90;;;;;;4997190;28;20042;-76
2023/10/03 04:18:10;;;;;;;26.35;13.25;;;18.00;99.90;;;;;;4997876;28;20033;-76
2023/10/03 04:20:39;;;;;;;22.48;11.52;;;18.00;99.90;;;;;;4995230;28;20034;-76
2023/10/03 04:23:07;;;;;;;20.35;11.50;;;18.00;99.90;;;;;;4990572;28;20038;-77
2023/10/03 04:25:33;;;;;;;22.20;11.93;;;18.00;99.90;;;;;;4976177;28;20045;-77
2023/10/03 04:28:01;;;;;;;24.15;13.18;;;18.00;99.90;;;;;;4976430;28;20477;-76
2023/10/03 04:30:27;;;;;;;26.98;13.27;;;18.10;99.90;;;;;;4993349;28;20025;-77
2023/10/03 04:32:55;;;;;;;20.80;10.80;;;18.10;99.90;;;;;;4995785;28;20038;-77
2023/10/03 04:35:22;;;;;;;18.08;10.15;;;18.10;99.90;;;;;;4982392;28;20048;-77
2023/10/03 04:37:56;;;;;;;22.58;10.25;;;18.10;99.90;;;;;;4979698;28;20030;-76
2023/10/03 04:40:33;;;;;;;21.77;11.38;;;18.10;99.90;;;;;;5004049;28;20038;-77
2023/10/03 04:43:07;;;;;;;19.88;9.93;;;18.10;99.90;;;;;;4995193;28;20041;-77
2023/10/03 04:45:35;;;;;;;18.25;9.48;;;18.20;99.90;;;;;;4978454;28;20038;-77
2023/10/03 04:48:03;;;;;;;18.23;9.40;;;18.20;99.90;;;;;;4995532;28;20033;-77
2023/10/03 04:50:31;;;;;;;17.08;8.32;;;18.20;99.90;;;;;;4997317;28;20037;-77
2023/10/03 04:52:59;;;;;;;20.25;10.10;;;18.20;99.90;;;;;;4978775;28;20045;-77
2023/10/03 04:55:26;;;;;;;15.95;8.07;;;18.30;99.90;;;;;;4995218;28;20504;-77
2023/10/03 04:57:54;;;;;;;14.60;7.57;;;18.30;99.90;;;;;;4993984;28;20033;-77
2023/10/03 05:00:22;;;;;;;12.35;5.38;;;18.30;99.90;;;;;;4979018;28;20076;-76
2023/10/03 05:02:51;;;;;;;14.63;5.50;;;18.40;99.90;;;;;;4994352;28;20405;-76
2023/10/03 05:05:18;;;;;;;13.13;5.30;;;18.40;99.90;;;;;;4993533;28;20046;-76
2023/10/03 05:07:45;;;;;;;9.57;4.75;;;18.40;99.90;;;;;;4995452;28;20496;-77
2023/10/03 05:10:12;;;;;;;16.58;4.97;;;18.40;99.90;;;;;;4979158;28;20037;-77
2023/10/03 05:12:39;;;;;;;10.80;4.40;;;18.50;99.90;;;;;;4994484;28;20043;-75
2023/10/03 05:15:09;;;;;;;9.25;4.13;;;18.50;99.90;;;;;;4964171;28;20038;-76
2023/10/03 05:17:35;;;;;;;15.40;5.15;;;18.50;99.90;;;;;;4993468;28;20503;-76
2023/10/03 05:20:03;;;;;;;11.25;5.05;;;18.60;99.90;;;;;;4978604;28;20038;-76
2023/10/03 05:22:33;;;;;;;11.73;4.13;;;18.60;99.90;;;;;;4992687;28;20046;-76
2023/10/03 05:25:01;;;;;;;7.47;4.20;;;18.60;99.90;;;;;;4979391;28;20034;-76
2023/10/03 05:27:28;;;;;;;8.50;3.67;;;18.50;99.90;;;;;;4995762;28;20042;-76
2023/10/03 05:29:59;;;;;;;9.32;4.60;;;18.50;99.90;;;;;;4992900;28;20030;-76
2023/10/03 05:32:28;;;;;;;8.38;3.58;;;18.50;99.90;;;;;;4994001;28;20037;-77
2023/10/03 05:34:55;;;;;;;9.65;4.32;;;18.40;99.90;;;;;;4993301;28;20041;-76
2023/10/03 05:37:22;;;;;;;10.95;4.38;;;18.40;99.90;;;;;;4992482;28;20042;-76
2023/10/03 05:39:48;;;;;;;7.47;3.25;;;18.30;99.90;;;;;;4978482;28;20594;-76
2023/10/03 05:42:17;;;;;;;8.85;3.30;;;18.30;99.90;;;;;;4958853;28;20033;-78
2023/10/03 05:44:44;;;;;;;9.38;3.83;;;18.30;99.90;;;;;;4993596;28;20403;-78
2023/10/03 05:47:11;;;;;;;6.55;3.28;;;18.30;99.90;;;;;;4997848;28;20041;-76
2023/10/03 05:49:39;;;;;;;7.45;3.88;;;18.30;99.90;;;;;;5014819;28;20503;-78
2023/10/03 05:52:06;;;;;;;5.68;2.70;;;18.40;99.90;;;;;;5001401;28;20399;-79
2023/10/03 05:54:34;;;;;;;10.98;5.05;;;18.40;99.90;;;;;;4999069;28;20033;-78
2023/10/03 05:57:00;;;;;;;6.53;3.78;;;18.50;99.90;;;;;;4998439;28;20057;-78
2023/10/03 05:59:27;;;;;;;7.00;3.20;;;18.40;99.90;;;;;;4982886;28;20037;-78
2023/10/03 06:01:53;;;;;;;6.75;2.78;;;18.50;99.90;;;;;;4982076;28;20041;-77
2023/10/03 06:04:20;;;;;;;7.78;2.75;;;18.50;99.90;;;;;;5014183;28;20026;-77
2023/10/03 06:06:46;;;;;;;6.03;3.03;;;18.50;99.90;;;;;;4982405;28;20042;-76
2023/10/03 06:09:13;;;;;;;10.27;3.03;;;18.50;99.90;;;;;;4983672;28;20030;-78
2023/10/03 06:11:39;;;;;;;9.02;3.58;;;18.60;99.90;;;;;;4966843;28;20039;-78
2023/10/03 06:14:06;;;;;;;6.68;2.95;;;18.60;99.90;;;;;;4997551;28;20033;-76
2023/10/03 06:16:32;;;;;;;7.35;3.42;;;18.60;99.90;;;;;;4999571;28;20612;-77
2023/10/03 06:18:59;;;;;;;6.88;3.40;;;18.60;99.90;;;;;;4996562;28;20034;-78
2023/10/03 06:21:25;;;;;;;8.10;3.20;;;18.60;99.90;;;;;;5013102;28;20053;-77
2023/10/03 06:23:51;;;;;;;7.03;3.58;;;18.60;99.90;;;;;;4996353;28;20037;-76
2023/10/03 06:26:18;;;;;;;10.05;3.58;;;18.60;99.90;;;;;;4965177;28;20096;-76
2023/10/03 06:28:46;;;;;;;5.70;2.97;;;18.60;99.90;;;;;;4982436;28;20038;-77
2023/10/03 06:31:12;;;;;;;12.70;4.47;;;18.60;99.90;;;;;;4997981;28;21173;-78
2023/10/03 06:33:39;;;;;;;6.93;3.97;;;18.60;99.90;;;;;;4992457;28;20045;-75
2023/10/03 06:36:06;;;;;;;10.27;4.65;;;18.60;99.90;;;;;;4996181;28;20073;-76
2023/10/03 06:38:33;;;;;;;9.00;3.40;;;18.60;99.90;;;;;;5013771;28;20380;-77
2023/10/03 06:41:00;;;;;;;7.85;3.47;;;18.60;99.90;;;;;;4979220;28;20701;-77
2023/10/03 06:43:26;;;;;;;10.15;4.25;;;18.60;99.90;;;;;;5012620;28;20480;-77
2023/10/03 06:45:53;;;;;;;8.20;4.22;;;18.60;99.90;;;;;;4998139;28;20046;-76
2023/10/03 06:48:21;;;;;;;8.77;3.67;;;18.70;99.90;;;;;;5000029;28;20022;-76
2023/10/03 06:50:48;;;;;;;5.95;3.35;;;18.70;99.90;;;;;;4982077;28;20342;-78
2023/10/03 06:53:16;;;;;;;9.73;4.50;;;18.70;99.90;;;;;;5012802;28;20046;-76
2023/10/03 06:55:42;;;;;;;6.97;3.47;;;18.70;99.90;;;;;;4981299;28;20476;-76
2023/10/03 06:58:10;;;;;;;10.77;4.95;;;18.70;99.90;;;;;;4965998;28;20034;-76
2023/10/03 07:00:38;;;;;;;9.70;3.80;;;18.70;99.90;;;;;;4980733;28;20034;-77
2023/10/03 07:03:04;;;;;;;5.82;2.47;;;18.80;99.90;;;;;;4980094;28;20045;-76
2023/10/03 07:05:32;;;;;;;8.80;3.78;;;18.80;99.90;;;;;;4997827;28;20516;-76
2023/10/03 07:07:58;;;;;;;7.95;3.40;;;18.90;99.90;;;;;;4977972;28;20037;-77
2023/10/03 07:10:25;;;;;;;7.72;3.58;;;18.90;99.90;;;;;;4984574;28;20381;-76
2023/10/03 07:12:52;;;;;;;8.18;3.22;;;19.00;99.90;;;;;;4980434;28;20124;-76
2023/10/03 07:15:18;;;;;;;6.90;3.35;;;19.20;99.90;;;;;;4982556;28;20053;-78
2023/10/03 07:17:45;;;;;;;8.15;3.33;;;19.30;99.90;;;;;;4982353;28;20049;-77
2023/10/03 07:20:13;;;;;;;5.72;3.13;;;19.40;99.90;;;;;;4966069;28;20022;-77
2023/10/03 07:22:40;;;;;;;6.80;3.35;;;19.50;99.90;;;;;;4997441;28;21058;-76
2023/10/03 07:25:08;;;;;;;5.05;2.70;;;19.50;99.90;;;;;;4997947;28;20045;-78
2023/10/03 07:27:36;;;;;;;6.95;2.80;;;19.40;99.90;;;;;;4980218;28;20037;-76
2023/10/03 07:30:03;;;;;;;8.43;3.60;;;19.40;99.90;;;;;;4995594;28;20034;-77
2023/10/03 07:32:32;;;;;;;6.60;3.22;;;19.30;99.90;;;;;;4983468;28;20030;-76
2023/10/03 07:34:59;;;;;;;10.77;3.95;;;19.30;99.90;;;;;;4997945;28;20030;-77
2023/10/03 07:37:26;;;;;;;8.55;4.47;;;19.10;99.90;;;;;;4994619;28;20045;-81
2023/10/03 07:39:53;;;;;;;8.15;3.88;;;18.90;99.90;;;;;;4982376;28;20843;-82
2023/10/03 07:42:21;;;;;;;10.30;4.53;;;18.70;99.90;;;;;;4998705;28;20436;-85
2023/10/03 07:44:52;;;;;;;7.18;3.67;;;18.40;99.90;;;;;;4997814;28;20038;-76
2023/10/03 07:47:20;;;;;;;7.15;4.00;;;18.20;99.90;;;;;;5013138;28;20033;-78
2023/10/03 07:49:48;;;;;;;7.60;3.20;;;18.10;99.90;;;;;;4996740;28;20030;-79
2023/10/03 07:52:18;;;;;;;7.10;3.28;;;18.00;99.90;;;;;;4998349;28;20046;-79
2023/10/03 07:54:49;;;;;;;6.00;3.30;;;17.90;99.90;;;;;;5001941;28;20060;-79
2023/10/03 07:57:15;;;;;;;8.25;4.35;;;17.80;99.90;;;;;;4999020;28;20026;-79
2023/10/03 07:59:43;;;;;;;10.40;4.18;;;17.80;99.90;;;;;;4997118;28;20034;-79
2023/10/03 08:02:10;;;;;;;6.88;3.67;;;17.90;99.90;;;;;;4998614;28;21227;-78
2023/10/03 08:04:40;;;;;;;6.07;3.55;;;17.90;99.90;;;;;;4977041;28;20053;-77
2023/10/03 08:07:07;;;;;;;6.88;3.72;;;17.90;99.90;;;;;;4984033;28;20400;-78
2023/10/03 08:09:34;;;;;;;11.35;3.95;;;17.90;99.90;;;;;;5011437;28;20030;-78
2023/10/03 08:12:05;;;;;;;6.97;3.00;;;17.90;99.90;;;;;;4982154;28;20045;-76
2023/10/03 08:14:35;;;;;;;8.32;3.28;;;17.80;99.90;;;;;;4981393;28;20033;-78
2023/10/03 08:17:03;;;;;;;5.65;2.78;;;17.80;99.90;;;;;;4965713;28;20030;-77
2023/10/03 08:19:29;;;;;;;8.13;2.97;;;17.80;99.90;;;;;;4997776;28;20392;-78
2023/10/03 08:21:57;;;;;;;6.80;1.88;;;17.80;99.90;;;;;;4983888;28;20038;-78
2023/10/03 08:24:25;;;;;;;5.13;1.65;;;17.80;99.90;;;;;;4961578;28;20046;-78
2023/10/03 08:26:52;;;;;;;6.03;1.77;;;17.80;99.90;;;;;;4992082;28;20603;-77
2023/10/03 08:29:22;;;;;;;3.25;1.63;;;17.90;99.90;;;;;;4991923;28;20029;-78
2023/10/03 08:31:49;;;;;;;4.30;1.58;;;18.00;99.90;;;;;;4996263;28;20044;-79
2023/10/03 08:34:22;;;;;;;6.03;1.65;;;18.00;99.90;;;;;;4995739;28;20449;-77
2023/10/03 08:36:53;;;;;;;5.88;1.75;;;18.10;99.90;;;;;;4965168;28;20029;-77
2023/10/03 08:39:23;;;;;;;4.30;1.50;;;18.10;99.90;;;;;;4993636;28;20428;-77
2023/10/03 08:41:58;;;;;;;4.75;1.45;;;18.10;99.90;;;;;;4981434;28;20528;-78
2023/10/03 08:44:24;;;;;;;9.32;1.95;;;18.00;99.90;;;;;;4994391;28;20045;-79
2023/10/03 08:46:58;;;;;;;6.05;1.13;;;18.00;99.90;;;;;;4963291;28;20481;-79
2023/10/03 08:49:27;;;;;;;3.83;0.80;;;17.90;99.90;;;;;;4979512;28;20029;-77
2023/10/03 08:52:01;;;;;;;7.00;1.27;;;17.90;99.90;;;;;;5010387;28;20034;-77
2023/10/03 08:54:36;;;;;;;4.40;1.20;;;17.90;99.90;;;;;;4994356;28;20033;-78
2023/10/03 08:57:04;;;;;;;4.22;1.10;;;17.80;99.90;;;;;;4997522;28;20029;-78
2023/10/03 08:59:31;;;;;;;5.35;0.80;;;17.80;99.90;;;;;;4995575;28;20820;-80
2023/10/03 09:02:01;;;;;;;2.83;0.90;;;17.70;99.90;;;;;;4980472;28;20046;-77
2023/10/03 09:04:38;;;;;;;3.40;0.73;;;17.70;99.90;;;;;;4991935;28;20405;-78
2023/10/03 09:07:11;;;;;;;3.30;0.70;;;17.60;99.90;;;;;;4977849;28;20033;-77
2023/10/03 09:09:41;;;;;;;4.15;0.70;;;17.50;99.90;;;;;;5011986;28;20034;-78
2023/10/03 09:12:08;;;;;;;3.10;0.63;;;17.50;99.90;;;;;;4981011;28;20033;-77
2023/10/03 09:14:38;;;;;;;4.18;0.70;;;17.40;99.90;;;;;;4996643;28;20032;-78
2023/10/03 09:17:05;;;;;;;5.50;0.65;;;17.50;99.90;;;;;;4996484;28;20503;-79
2023/10/03 09:19:44;;;;;;;3.78;0.70;;;17.50;99.90;;;;;;4993359;28;20551;-78
2023/10/03 09:22:15;;;;;;;3.03;0.55;;;17.40;99.90;;;;;;4996988;28;20034;-78
2023/10/03 09:24:46;;;;;;;2.80;0.40;;;17.40;99.90;;;;;;5014347;28;20045;-77
2023/10/03 09:27:17;;;;;;;2.53;0.40;;;17.30;99.90;;;;;;4981803;28;20030;-77
2023/10/03 09:29:49;;;;;;;1.17;0.38;;;17.40;99.90;;;;;;4983220;28;20033;-78
2023/10/03 09:32:17;;;;;;;2.30;0.47;;;17.40;99.90;;;;;;4998464;28;20037;-78
2023/10/03 09:34:56;;;;;;;1.75;0.60;;;17.50;99.90;;;;;;4965064;28;20036;-78
2023/10/03 09:37:29;;;;;;;1.60;0.30;;;17.60;99.90;;;;;;4999163;28;20876;-76
2023/10/03 09:39:59;;;;;;;3.08;0.50;;;17.70;99.90;;;;;;4983094;28;20535;-78
2023/10/03 09:42:26;;;;;;;2.65;0.40;;;17.80;99.90;;;;;;5001055;28;20034;-78
2023/10/03 09:44:58;;;;;;;3.10;0.35;;;18.00;99.90;;;;;;4985283;28;20038;-78
2023/10/03 09:47:32;;;;;;;3.45;0.35;;;18.10;99.90;;;;;;4983190;28;20041;-78
2023/10/03 09:50:04;;;;;;;3.15;0.40;;;18.30;99.90;;;;;;4999339;28;20037;-76
2023/10/03 09:52:32;;;;;;;2.17;0.38;;;18.40;99.90;;;;;;4996382;28;20086;-77
2023/10/03 09:55:17;;;;;;;6.93;0.40;;;18.40;99.90;;;;;;4984103;28;20349;-77
2023/10/03 09:57:52;;;;;;;3.33;0.40;;;18.50;99.90;;;;;;4997469;28;20034;-78
2023/10/03 10:00:39;;;;;;;4.53;0.38;;;18.40;99.90;;;;;;4985565;28;20030;-77
2023/10/03 10:03:19;;;;;;;3.83;0.70;;;18.30;99.90;;;;;;5006076;28;20188;-76
2023/10/03 10:06:28;;;;;;;3.83;1.08;;;18.20;99.90;;;;;;4998186;28;20042;-77
2023/10/03 10:09:23;;;;;;;3.42;0.50;;;18.00;99.90;;;;;;4922554;29;20036;-79
2023/10/03 10:12:23;;;;;;;2.53;0.40;;;17.80;99.90;;;;;;4909080;29;20056;-77
2023/10/03 10:15:00;;;;;;;1.52;0.30;;;17.60;99.90;;;;;;4889921;29;20035;-78
2023/10/03 10:17:46;;;;;;;2.08;0.30;;;17.50;99.90;;;;;;4889269;29;20119;-77
2023/10/03 10:20:17;;;;;;;1.95;0.20;;;17.60;99.90;;;;;;4923816;29;20035;-75
2023/10/03 10:22:59;;;;;;;2.95;0.30;;;17.60;99.90;;;;;;4905831;29;20087;-75
2023/10/03 10:25:26;;;;;;;2.85;0.38;;;17.60;99.90;;;;;;4906532;29;20058;-78
2023/10/03 10:28:06;;;;;;;1.20;0.30;;;17.50;99.90;;;;;;4911032;29;20036;-77
2023/10/03 10:30:39;;;;;;;3.05;0.30;;;17.60;99.90;;;;;;4922400;29;20051;-75
2023/10/03 10:33:15;;;;;;;1.75;0.40;;;17.60;99.90;;;;;;4907786;29;20042;-76
2023/10/03 10:36:03;;;;;;;2.22;0.30;;;17.70;99.90;;;;;;4889673;29;20048;-75
2023/10/03 10:38:32;;;;;;;2.50;0.45;;;17.70;99.90;;;;;;4907937;29;20047;-75
2023/10/03 10:44:16;;;;;;;1.85;0.32;;;17.70;99.90;;;;;;4985246;28;20049;-78
2023/10/03 10:46:46;;;;;;;1.50;0.30;;;17.60;99.90;;;;;;4996027;28;20484;-78
2023/10/03 10:49:31;;;;;;;1.83;0.20;;;17.50;99.90;;;;;;4997532;28;20941;-76
2023/10/03 10:51:59;;;;;;;1.40;0.20;;;17.60;99.90;;;;;;4996571;28;20030;-75
2023/10/03 10:54:26;;;;;;;1.77;0.50;;;17.60;99.90;;;;;;4996991;28;20041;-78
2023/10/03 10:57:00;;;;;;;2.65;0.30;;;17.60;99.90;;;;;;4998345;28;20201;-78
2023/10/03 10:59:27;;;;;;;2.28;0.30;;;17.60;99.90;;;;;;5013056;28;20453;-78
2023/10/03 11:01:54;;;;;;;0.98;0.20;;;17.40;99.90;;;;;;4997033;28;20054;-77
2023/10/03 11:04:26;;;;;;;1.98;0.40;;;17.40;99.90;;;;;;4997457;28;20030;-78
2023/10/03 11:06:53;;;;;;;1.52;0.20;;;17.30;99.90;;;;;;4999847;28;20385;-78
2023/10/03 11:09:20;;;;;;;1.83;0.20;;;17.30;99.90;;;;;;4997716;28;20046;-76
2023/10/03 11:11:47;;;;;;;1.30;0.20;;;17.40;99.90;;;;;;4995795;28;20036;-77
2023/10/03 11:14:28;;;;;;;0.82;0.20;;;17.60;99.90;;;;;;5014220;28;20044;-77
2023/10/03 11:16:55;;;;;;;2.47;0.43;;;17.80;99.90;;;;;;4981443;28;20036;-76
2023/10/03 11:19:23;;;;;;;3.65;0.60;;;17.90;99.90;;;;;;4997465;28;20034;-77
2023/10/03 11:21:50;;;;;;;1.65;0.40;;;17.80;99.90;;;;;;4988047;28;20176;-78
2023/10/03 11:24:20;;;;;;;1.77;0.43;;;17.80;99.90;;;;;;4977396;28;20034;-77
2023/10/03 11:26:51;;;;;;;4.85;1.17;;;17.80;99.90;;;;;;4994464;28;20057;-79
2023/10/03 11:29:45;;;;;;;3.53;0.50;;;17.80;99.90;;;;;;4977829;28;20042;-77
2023/10/03 11:32:30;;;;;;;2.65;0.75;;;17.70;99.90;;;;;;4993732;28;20038;-77
2023/10/03 11:34:58;;;;;;;2.30;0.25;;;17.60;99.90;;;;;;5005623;28;20489;-79
2023/10/03 11:37:44;;;;;;;1.98;0.30;;;17.50;99.90;;;;;;4994053;28;20046;-79
2023/10/03 11:40:20;;;;;;;2.50;0.60;;;17.30;99.90;;;;;;4995433;28;20507;-79
2023/10/03 11:42:52;;;;;;;3.92;0.40;;;17.20;99.90;;;;;;4996483;28;20222;-77
2023/10/03 11:45:23;;;;;;;1.38;0.30;;;17.10;99.90;;;;;;4977786;28;20587;-77
2023/10/03 11:48:07;;;;;;;3.05;0.60;;;17.00;99.90;;;;;;4996141;28;20511;-78
2023/10/03 11:50:39;;;;;;;2.78;0.40;;;16.80;99.90;;;;;;4978654;28;20044;-78
2023/10/03 11:53:08;;;;;;;2.08;0.50;;;16.80;99.90;;;;;;5010758;28;20518;-77
2023/10/03 11:55:36;;;;;;;2.47;0.60;;;16.80;99.90;;;;;;4965812;28;20034;-77
2023/10/03 11:58:05;;;;;;;1.08;0.40;;;16.70;99.90;;;;;;4996487;28;20026;-78
2023/10/03 12:00:32;;;;;;;2.60;0.50;;;16.70;99.90;;;;;;4963687;28;20048;-78
2023/10/03 12:02:59;;;;;;;1.83;0.40;;;16.60;99.90;;;;;;4997044;28;20038;-78
2023/10/03 12:05:27;;;;;;;1.77;0.50;;;16.60;99.90;;;;;;4996698;28;20038;-77
2023/10/03 12:07:56;;;;;;;2.38;0.50;;;16.60;99.90;;;;;;4979046;28;20044;-78
2023/10/03 12:10:30;;;;;;;3.45;0.50;;;16.60;99.90;;;;;;4978912;28;20030;-77
2023/10/03 12:12:57;;;;;;;2.53;0.50;;;16.60;99.90;;;;;;4998210;28;20477;-78
2023/10/03 12:15:24;;;;;;;4.75;0.77;;;16.50;99.90;;;;;;4977221;28;20029;-75
2023/10/03 12:17:51;;;;;;;4.63;0.50;;;16.40;99.90;;;;;;5011229;28;20026;-75
2023/10/03 12:20:19;;;;;;;6.15;0.95;;;16.20;99.90;;;;;;4994199;28;20038;-74
2023/10/03 12:22:48;;;;;;;2.90;0.60;;;16.10;99.90;;;;;;5010263;28;20038;-75
2023/10/03 12:25:17;;;;;;;3.10;0.60;;;16.00;99.90;;;;;;5007894;28;20060;-76
2023/10/03 12:27:44;;;;;;;4.22;0.90;;;15.90;99.90;;;;;;4993703;28;20034;-76
2023/10/03 12:30:14;;;;;;;3.63;0.90;;;15.80;99.90;;;;;;4986463;28;20049;-78
2023/10/03 12:32:44;;;;;;;4.35;1.00;;;15.70;99.90;;;;;;5012089;28;20408;-77
2023/10/03 12:35:12;;;;;;;5.95;1.20;;;15.70;99.90;;;;;;4991775;28;20361;-78
2023/10/03 12:37:40;;;;;;;8.45;1.05;;;15.70;99.90;;;;;;4999724;28;20042;-79
2023/10/03 12:40:15;;;;;;;3.10;0.60;;;15.70;99.90;;;;;;4993369;28;20038;-77
2023/10/03 12:42:49;;;;;;;6.72;0.80;;;15.70;99.90;;;;;;4991686;28;20030;-79
2023/10/03 12:45:17;;;;;;;5.45;1.15;;;15.70;99.90;;;;;;4959314;28;20041;-77
2023/10/03 12:47:47;;;;;;;6.55;0.98;;;15.70;99.90;;;;;;4994633;28;20036;-77
2023/10/03 12:50:21;;;;;;;5.30;0.80;;;15.60;99.90;;;;;;4977729;28;20037;-77
2023/10/03 12:52:48;;;;;;;6.53;1.00;;;15.60;99.90;;;;;;4980095;28;20053;-80
2023/10/03 12:55:18;;;;;;;5.78;1.05;;;15.60;99.90;;;;;;4994142;28;20033;-77
2023/10/03 12:57:46;;;;;;;10.18;1.60;;;15.60;99.90;;;;;;4992553;28;20038;-78